createdAt,value
2019-06-08T00:00:15.255Z,2.27
2019-06-08T00:02:44.748Z,3.17
2019-06-08T00:05:14.786Z,4.03
2019-06-08T00:07:44.649Z,1.47
2019-06-08T00:10:14.803Z,2.67
2019-06-08T00:12:44.568Z,2.07
2019-06-08T00:15:16.049Z,2.70
2019-06-08T00:17:45.851Z,1.40
2019-06-08T00:20:17.573Z,1.77
2019-06-08T00:22:47.587Z,1.87
2019-06-08T00:25:18.775Z,1.50
2019-06-08T00:27:48.609Z,1.60
2019-06-08T00:30:18.558Z,2.60
2019-06-08T00:32:48.389Z,2.27
2019-06-08T00:35:18.675Z,1.93
2019-06-08T00:37:48.245Z,0.97
2019-06-08T00:40:18.932Z,2.30
2019-06-08T00:42:48.671Z,1.03
2019-06-08T00:45:21.569Z,2.33
2019-06-08T00:47:51.246Z,1.57
2019-06-08T00:50:22.613Z,1.10
2019-06-08T00:52:52.519Z,1.00
2019-06-08T00:55:41.198Z,1.77
2019-06-08T00:58:10.962Z,1.20
2019-06-08T01:00:40.988Z,1.70
2019-06-08T01:03:10.649Z,3.17
2019-06-08T01:05:40.536Z,2.43
2019-06-08T01:08:10.618Z,1.10
2019-06-08T01:10:40.598Z,0.90
2019-06-08T01:13:11.042Z,0.87
2019-06-08T01:15:40.560Z,1.27
2019-06-08T01:18:10.416Z,1.00
2019-06-08T01:20:40.460Z,2.73
2019-06-08T01:23:10.373Z,2.83
2019-06-08T01:25:40.222Z,1.27
2019-06-08T01:28:09.903Z,2.63
2019-06-08T01:30:39.668Z,2.00
2019-06-08T01:33:09.428Z,1.27
2019-06-08T01:35:39.004Z,1.73
2019-06-08T01:38:08.738Z,2.20
2019-06-08T01:40:38.348Z,1.20
2019-06-08T01:43:07.894Z,1.47
2019-06-08T01:45:37.780Z,0.80
2019-06-08T01:48:19.621Z,1.80
2019-06-08T01:50:39.344Z,1.20
2019-06-08T01:53:09.017Z,2.97
2019-06-08T01:55:38.840Z,2.50
2019-06-08T01:58:08.426Z,1.10
2019-06-08T02:00:41.519Z,1.37
2019-06-08T02:03:09.479Z,0.90
2019-06-08T02:05:39.142Z,1.10
2019-06-08T02:08:08.752Z,1.17
2019-06-08T02:10:38.430Z,1.40
2019-06-08T02:13:08.909Z,1.10
2019-06-08T02:15:38.644Z,1.57
2019-06-08T02:18:08.303Z,3.17
2019-06-08T02:20:39.254Z,1.87
2019-06-08T02:23:08.993Z,4.40
2019-06-08T02:25:39.603Z,1.57
2019-06-08T02:28:09.535Z,1.43
2019-06-08T02:30:41.877Z,1.20
2019-06-08T02:33:10.599Z,1.60
2019-06-08T02:35:41.826Z,1.30
2019-06-08T02:38:11.650Z,2.17
2019-06-08T02:40:41.283Z,2.90
2019-06-08T02:43:11.348Z,2.67
2019-06-08T02:45:41.261Z,2.60
2019-06-08T02:48:10.832Z,1.93
2019-06-08T02:51:07.141Z,1.60
2019-06-08T02:53:48.244Z,2.73
2019-06-08T02:56:20.898Z,3.33
2019-06-08T02:58:52.266Z,3.87
2019-06-08T03:01:23.680Z,1.50
2019-06-08T03:03:54.881Z,3.03
2019-06-08T03:06:27.774Z,1.37
2019-06-08T03:09:17.096Z,2.37
2019-06-08T03:11:49.477Z,2.30
2019-06-08T03:14:22.490Z,1.53
2019-06-08T03:16:58.358Z,2.67
2019-06-08T03:19:28.008Z,1.60
2019-06-08T03:21:57.678Z,1.50
2019-06-08T03:24:27.535Z,3.37
2019-06-08T03:26:57.317Z,3.80
2019-06-08T03:29:26.877Z,5.40
2019-06-08T03:31:57.564Z,3.20
2019-06-08T03:34:27.392Z,1.40
2019-06-08T03:36:57.685Z,2.57
2019-06-08T03:39:27.506Z,1.47
2019-06-08T03:42:16.072Z,1.40
2019-06-08T03:44:45.627Z,1.70
2019-06-08T03:47:15.395Z,2.00
2019-06-08T03:49:54.822Z,1.70
2019-06-08T03:52:27.864Z,1.50
2019-06-08T03:54:57.646Z,1.53
2019-06-08T03:57:27.411Z,1.50
2019-06-08T03:59:57.094Z,1.50
2019-06-08T04:02:26.637Z,3.57
2019-06-08T04:05:15.254Z,2.17
2019-06-08T04:07:46.491Z,2.10
2019-06-08T04:10:17.032Z,1.20
2019-06-08T04:12:46.836Z,1.93
2019-06-08T04:15:17.088Z,2.03
2019-06-08T04:17:46.761Z,1.40
2019-06-08T04:20:16.719Z,1.53
2019-06-08T04:22:52.424Z,1.63
2019-06-08T04:25:22.465Z,1.57
2019-06-08T04:27:52.082Z,2.67
2019-06-08T04:30:21.844Z,1.30
2019-06-08T04:32:51.444Z,1.90
2019-06-08T04:35:21.144Z,4.43
2019-06-08T04:37:51.167Z,1.80
2019-06-08T04:40:21.377Z,1.20
2019-06-08T04:42:51.440Z,2.07
2019-06-08T04:45:21.227Z,2.60
2019-06-08T04:47:50.799Z,1.70
2019-06-08T04:50:23.432Z,1.60
2019-06-08T04:52:51.945Z,1.83
2019-06-08T04:55:21.626Z,2.57
2019-06-08T04:57:51.403Z,1.83
2019-06-08T05:00:41.403Z,1.73
2019-06-08T05:03:11.169Z,2.43
2019-06-08T05:05:41.121Z,2.70
2019-06-08T05:08:11.039Z,1.87
2019-06-08T05:10:41.279Z,2.30
2019-06-08T05:13:10.950Z,1.77
2019-06-08T05:15:41.389Z,2.07
2019-06-08T05:18:11.263Z,2.27
2019-06-08T05:20:43.048Z,1.57
2019-06-08T05:23:12.294Z,3.27
2019-06-08T05:25:43.136Z,1.40
2019-06-08T05:28:12.767Z,1.60
2019-06-08T05:30:43.239Z,1.40
2019-06-08T05:33:12.878Z,1.20
2019-06-08T05:35:43.444Z,1.40
2019-06-08T05:38:13.502Z,2.03
2019-06-08T05:40:43.603Z,1.50
2019-06-08T05:43:13.160Z,2.10
2019-06-08T05:45:43.573Z,3.60
2019-06-08T05:48:13.363Z,1.50
2019-06-08T05:50:58.835Z,1.63
2019-06-08T05:53:14.464Z,3.53
2019-06-08T05:55:44.262Z,2.60
2019-06-08T05:58:13.873Z,1.50
2019-06-08T06:00:44.235Z,1.20
2019-06-08T06:03:13.951Z,1.67
2019-06-08T06:05:44.343Z,1.40
2019-06-08T06:08:18.907Z,2.83
2019-06-08T06:10:45.089Z,2.17
2019-06-08T06:13:14.645Z,2.70
2019-06-08T06:15:45.039Z,1.47
2019-06-08T06:18:14.593Z,1.17
2019-06-08T06:20:45.343Z,1.80
2019-06-08T06:23:15.404Z,1.20
2019-06-08T06:25:45.407Z,1.10
2019-06-08T06:28:15.343Z,2.67
2019-06-08T06:30:46.589Z,2.60
2019-06-08T06:33:16.271Z,1.60
2019-06-08T06:35:46.029Z,0.97
2019-06-08T06:38:15.558Z,1.90
2019-06-08T06:40:45.934Z,1.27
2019-06-08T06:43:15.655Z,1.10
2019-06-08T06:45:46.076Z,1.10
2019-06-08T06:48:15.709Z,1.03
2019-06-08T06:50:46.304Z,1.40
2019-06-08T06:53:15.870Z,1.53
2019-06-08T06:55:46.828Z,1.03
2019-06-08T06:58:16.840Z,1.00
2019-06-08T07:00:47.495Z,0.80
2019-06-08T07:03:35.293Z,1.03
2019-06-08T07:06:04.955Z,0.83
2019-06-08T07:08:34.586Z,1.80
2019-06-08T07:11:04.219Z,2.37
2019-06-08T07:13:33.804Z,1.47
2019-06-08T07:16:18.016Z,1.40
2019-06-08T07:18:34.969Z,2.87
2019-06-08T07:21:04.538Z,1.37
2019-06-08T07:23:34.358Z,1.03
2019-06-08T07:26:03.946Z,0.87
2019-06-08T07:28:33.503Z,0.80
2019-06-08T07:31:03.365Z,0.80
2019-06-08T07:33:32.948Z,0.77
2019-06-08T07:36:02.463Z,0.83
2019-06-08T07:38:32.031Z,1.70
2019-06-08T07:41:01.906Z,1.13
2019-06-08T07:43:31.590Z,1.27
2019-06-08T07:46:01.154Z,1.13
2019-06-08T07:48:30.749Z,0.80
2019-06-08T07:51:00.327Z,1.60
2019-06-08T07:53:34.878Z,0.70
2019-06-08T07:56:04.474Z,1.40
2019-06-08T07:58:34.074Z,2.30
2019-06-08T08:01:07.900Z,1.63
2019-06-08T08:03:34.902Z,1.20
2019-06-08T08:06:04.472Z,2.23
2019-06-08T08:08:34.016Z,0.90
2019-06-08T08:11:03.564Z,1.10
2019-06-08T08:13:33.139Z,0.70
2019-06-08T08:16:02.697Z,1.20
2019-06-08T08:18:32.284Z,0.93
2019-06-08T08:21:09.256Z,1.53
2019-06-08T08:23:33.076Z,1.03
2019-06-08T08:26:02.635Z,2.27
2019-06-08T08:28:32.210Z,1.23
2019-06-08T08:31:02.004Z,0.90
2019-06-08T08:33:31.612Z,1.63
2019-06-08T08:36:01.892Z,2.47
2019-06-08T08:38:31.746Z,1.77
2019-06-08T08:41:07.130Z,2.37
2019-06-08T08:43:32.839Z,2.00
2019-06-08T08:46:02.586Z,1.27
2019-06-08T08:48:37.576Z,1.47
2019-06-08T08:51:08.564Z,1.97
2019-06-08T08:53:38.332Z,1.10
2019-06-08T08:56:09.948Z,3.13
2019-06-08T08:58:39.360Z,1.13
2019-06-08T09:01:09.260Z,2.50
2019-06-08T09:03:39.666Z,1.53
2019-06-08T09:06:09.704Z,1.20
2019-06-08T09:08:39.341Z,0.93
2019-06-08T09:11:09.111Z,1.67
2019-06-08T09:13:39.044Z,1.17
2019-06-08T09:16:08.599Z,2.37
2019-06-08T09:18:38.159Z,1.60
2019-06-08T09:21:08.340Z,1.13
2019-06-08T09:23:38.086Z,1.43
2019-06-08T09:26:12.466Z,1.47
2019-06-08T09:28:38.985Z,1.73
2019-06-08T09:31:12.584Z,2.50
2019-06-08T09:33:39.954Z,1.80
2019-06-08T09:36:09.496Z,1.10
2019-06-08T09:38:39.057Z,1.00
2019-06-08T09:41:09.119Z,1.20
2019-06-08T09:43:38.950Z,1.20
2019-06-08T09:46:09.450Z,3.83
2019-06-08T09:48:39.256Z,1.43
2019-06-08T09:51:09.381Z,2.93
2019-06-08T09:53:41.651Z,2.47
2019-06-08T09:56:10.531Z,1.03
2019-06-08T09:58:40.191Z,1.00
2019-06-08T10:01:12.227Z,1.67
2019-06-08T10:03:41.021Z,1.30
2019-06-08T10:06:12.453Z,1.27
2019-06-08T10:08:41.763Z,2.60
2019-06-08T10:11:11.346Z,1.77
2019-06-08T10:13:43.242Z,1.20
2019-06-08T10:16:12.129Z,0.90
2019-06-08T10:18:41.672Z,1.00
2019-06-08T10:21:11.407Z,1.77
2019-06-08T10:23:41.789Z,1.10
2019-06-08T10:26:12.240Z,2.47
2019-06-08T10:28:41.774Z,1.37
2019-06-08T10:31:11.380Z,1.23
2019-06-08T10:33:41.058Z,1.03
2019-06-08T10:36:12.830Z,1.07
2019-06-08T10:38:42.032Z,1.17
2019-06-08T10:41:17.851Z,3.83
2019-06-08T10:43:43.004Z,4.97
2019-06-08T10:46:17.145Z,1.47
2019-06-08T10:48:54.894Z,1.20
2019-06-08T10:51:24.466Z,2.73
2019-06-08T10:53:54.051Z,2.50
2019-06-08T10:56:23.572Z,1.63
2019-06-08T10:58:53.303Z,1.33
2019-06-08T11:01:22.866Z,1.10
2019-06-08T11:03:52.453Z,1.60
2019-06-08T11:06:22.069Z,1.30
2019-06-08T11:08:51.650Z,1.33
2019-06-08T11:11:21.178Z,1.57
2019-06-08T11:13:50.787Z,1.00
2019-06-08T11:16:20.322Z,1.13
2019-06-08T11:18:51.126Z,1.30
2019-06-08T11:21:20.955Z,2.43
2019-06-08T11:24:06.061Z,1.93
2019-06-08T11:26:24.583Z,2.50
2019-06-08T11:28:53.550Z,1.10
2019-06-08T11:31:23.105Z,1.40
2019-06-08T11:33:53.533Z,1.47
2019-06-08T11:36:41.965Z,2.30
2019-06-08T11:39:12.924Z,1.53
2019-06-08T11:41:43.795Z,1.60
2019-06-08T11:44:33.143Z,2.03
2019-06-08T11:47:02.742Z,1.70
2019-06-08T11:49:32.343Z,1.37
2019-06-08T11:52:02.562Z,1.20
2019-06-08T11:54:36.995Z,1.73
2019-06-08T11:57:04.905Z,1.27
2019-06-08T11:59:37.312Z,1.20
2019-06-08T12:02:10.527Z,1.30
2019-06-08T12:04:38.394Z,1.70
2019-06-08T12:07:09.534Z,2.70
2019-06-08T12:09:58.445Z,1.30
2019-06-08T12:12:28.304Z,1.40
2019-06-08T12:14:58.288Z,1.63
2019-06-08T12:17:28.004Z,1.20
2019-06-08T12:19:57.754Z,1.50
2019-06-08T12:22:27.403Z,1.70
2019-06-08T12:24:56.983Z,1.47
2019-06-08T12:27:33.174Z,3.90
2019-06-08T12:29:58.798Z,1.27
2019-06-08T12:32:28.420Z,1.53
2019-06-08T12:35:00.086Z,1.30
2019-06-08T12:37:29.195Z,1.63
2019-06-08T12:40:01.258Z,2.63
2019-06-08T12:42:29.933Z,1.57
2019-06-08T12:44:59.466Z,1.13
2019-06-08T12:47:29.932Z,1.67
2019-06-08T12:49:59.873Z,1.33
2019-06-08T12:52:29.859Z,2.77
2019-06-08T12:55:06.335Z,1.30
2019-06-08T12:57:30.795Z,1.93
2019-06-08T13:00:00.712Z,1.37
2019-06-08T13:02:30.874Z,1.00
2019-06-08T13:05:00.475Z,1.07
2019-06-08T13:07:30.029Z,1.20
2019-06-08T13:09:59.597Z,1.10
2019-06-08T13:12:29.167Z,1.33
2019-06-08T13:14:58.701Z,1.30
2019-06-08T13:17:28.213Z,1.57
2019-06-08T13:19:58.201Z,1.40
2019-06-08T13:22:31.291Z,1.70
2019-06-08T13:25:14.666Z,1.53
2019-06-08T13:27:30.439Z,1.67
2019-06-08T13:30:00.209Z,1.57
2019-06-08T13:32:29.767Z,1.40
2019-06-08T13:35:00.049Z,1.43
2019-06-08T13:37:29.981Z,1.40
2019-06-08T13:39:59.747Z,1.93
2019-06-08T13:42:29.404Z,1.97
2019-06-08T13:44:59.039Z,2.40
2019-06-08T13:47:28.824Z,1.40
2019-06-08T13:49:58.412Z,1.30
2019-06-08T13:52:28.326Z,1.10
2019-06-08T13:54:58.315Z,1.83
2019-06-08T13:57:37.776Z,2.73
2019-06-08T14:00:08.201Z,3.43
2019-06-08T14:02:39.834Z,3.63
2019-06-08T14:05:09.755Z,2.50
2019-06-08T14:07:39.314Z,1.60
2019-06-08T14:10:09.632Z,1.40
2019-06-08T14:12:39.375Z,1.47
2019-06-08T14:15:09.566Z,1.33
2019-06-08T14:17:39.253Z,1.57
2019-06-08T14:20:09.033Z,2.07
2019-06-08T14:22:39.045Z,3.00
2019-06-08T14:25:10.870Z,3.17
2019-06-08T14:27:43.788Z,1.40
2019-06-08T14:30:13.724Z,1.73
2019-06-08T14:32:43.286Z,1.97
2019-06-08T14:35:12.966Z,2.60
2019-06-08T14:37:42.618Z,1.93
2019-06-08T14:40:12.362Z,1.60
2019-06-08T14:42:42.045Z,1.50
2019-06-08T14:45:12.396Z,1.50
2019-06-08T14:47:42.046Z,2.03
2019-06-08T14:50:12.022Z,1.80
2019-06-08T14:52:41.830Z,5.20
2019-06-08T14:55:19.822Z,1.47
2019-06-08T14:57:49.042Z,1.40
2019-06-08T15:00:23.001Z,2.57
2019-06-08T15:02:53.210Z,1.30
2019-06-08T15:05:23.312Z,1.60
2019-06-08T15:07:52.941Z,1.47
2019-06-08T15:10:23.385Z,1.43
2019-06-08T15:12:53.673Z,4.23
2019-06-08T15:15:23.667Z,2.13
2019-06-08T15:17:53.376Z,1.77
2019-06-08T15:20:23.999Z,1.60
2019-06-08T15:22:53.930Z,3.57
2019-06-08T15:25:24.655Z,4.43
2019-06-08T15:27:54.219Z,1.40
2019-06-08T15:30:25.106Z,1.50
2019-06-08T15:32:54.827Z,1.90
2019-06-08T15:35:25.154Z,1.57
2019-06-08T15:37:54.836Z,1.50
2019-06-08T15:40:25.842Z,1.40
2019-06-08T15:42:55.657Z,2.03
2019-06-08T15:45:26.920Z,1.40
2019-06-08T15:47:58.488Z,1.63
2019-06-08T15:50:28.436Z,4.57
2019-06-08T15:53:00.119Z,2.10
2019-06-08T15:55:31.935Z,1.77
2019-06-08T15:58:00.687Z,1.50
2019-06-08T16:00:32.779Z,2.10
2019-06-08T16:03:01.523Z,4.07
2019-06-08T16:05:31.670Z,3.10
2019-06-08T16:08:01.665Z,1.40
2019-06-08T16:10:32.320Z,3.63
2019-06-08T16:13:02.238Z,2.73
2019-06-08T16:15:33.268Z,1.47
2019-06-08T16:18:09.965Z,2.00
2019-06-08T16:20:39.691Z,1.77
2019-06-08T16:23:09.513Z,2.63
2019-06-08T16:25:39.287Z,1.60
2019-06-08T16:28:08.880Z,2.60
2019-06-08T16:30:39.461Z,1.90
2019-06-08T16:33:10.885Z,3.30
2019-06-08T16:35:40.537Z,3.63
2019-06-08T16:38:10.303Z,2.07
2019-06-08T16:40:40.501Z,3.13
2019-06-08T16:43:10.147Z,1.67
2019-06-08T16:45:39.817Z,2.07
2019-06-08T16:48:09.655Z,1.90
2019-06-08T16:50:39.391Z,2.40
2019-06-08T16:53:08.949Z,2.07
2019-06-08T16:55:38.768Z,2.57
2019-06-08T16:58:08.455Z,2.57
2019-06-08T17:00:40.755Z,3.80
2019-06-08T17:03:09.357Z,2.87
2019-06-08T17:05:38.946Z,2.07
2019-06-08T17:08:08.607Z,3.60
2019-06-08T17:10:38.697Z,2.27
2019-06-08T17:13:11.168Z,2.07
2019-06-08T17:15:40.437Z,2.00
2019-06-08T17:18:10.027Z,2.87
2019-06-08T17:20:40.691Z,2.67
2019-06-08T17:23:10.325Z,2.77
2019-06-08T17:25:58.940Z,1.60
2019-06-08T17:28:28.873Z,3.17
2019-06-08T17:30:58.633Z,2.37
2019-06-08T17:33:28.165Z,2.03
2019-06-08T17:35:58.104Z,2.23
2019-06-08T17:38:28.094Z,1.40
2019-06-08T17:40:58.028Z,1.63
2019-06-08T17:43:27.666Z,1.70
2019-06-08T17:45:57.324Z,2.10
2019-06-08T17:48:27.206Z,3.07
2019-06-08T17:50:56.790Z,2.60
2019-06-08T17:53:26.601Z,4.60
2019-06-08T17:55:56.160Z,3.33
2019-06-08T17:58:25.968Z,2.13
2019-06-08T18:00:55.778Z,2.00
2019-06-08T18:03:27.786Z,2.37
2019-06-08T18:05:58.016Z,1.77
2019-06-08T18:08:28.225Z,2.00
2019-06-08T18:10:58.019Z,1.87
2019-06-08T18:13:27.810Z,2.10
2019-06-08T18:15:57.705Z,1.90
2019-06-08T18:18:28.319Z,2.77
2019-06-08T18:20:58.145Z,1.90
2019-06-08T18:23:27.981Z,1.80
2019-06-08T18:25:58.161Z,2.00
2019-06-08T18:28:28.262Z,1.60
2019-06-08T18:30:58.202Z,2.40
2019-06-08T18:33:28.202Z,2.17
2019-06-08T18:35:57.958Z,3.13
2019-06-08T18:38:27.568Z,4.70
2019-06-08T18:40:57.576Z,5.63
2019-06-08T18:43:27.935Z,7.90
2019-06-08T18:45:57.781Z,11.47
2019-06-08T18:48:28.177Z,16.10
2019-06-08T18:50:58.108Z,6.07
2019-06-08T18:53:27.888Z,2.50
2019-06-08T18:55:58.147Z,2.63
2019-06-08T18:58:28.039Z,2.00
2019-06-08T19:00:57.648Z,1.70
2019-06-08T19:03:28.255Z,1.60
2019-06-08T19:05:58.544Z,2.33
2019-06-08T19:08:28.756Z,1.63
2019-06-08T19:10:58.747Z,1.80
2019-06-08T19:13:28.557Z,1.70
2019-06-08T19:15:59.870Z,1.73
2019-06-08T19:18:29.623Z,2.63
2019-06-08T19:20:59.675Z,3.63
2019-06-08T19:23:29.252Z,1.80
2019-06-08T19:26:07.739Z,2.10
2019-06-08T19:28:42.840Z,2.93
2019-06-08T19:31:10.362Z,2.83
2019-06-08T19:33:40.154Z,4.10
2019-06-08T19:36:09.788Z,1.80
2019-06-08T19:38:40.051Z,2.50
2019-06-08T19:41:10.959Z,2.80
2019-06-08T19:43:42.954Z,2.00
2019-06-08T19:46:12.141Z,2.13
2019-06-08T19:48:43.873Z,1.97
2019-06-08T19:51:13.088Z,2.30
2019-06-08T19:53:47.606Z,2.67
2019-06-08T19:56:14.247Z,2.13
2019-06-08T19:58:56.583Z,3.10
2019-06-08T20:01:17.338Z,2.30
2019-06-08T20:03:46.991Z,3.40
2019-06-08T20:06:17.608Z,4.27
2019-06-08T20:08:50.220Z,3.10
2019-06-08T20:11:22.651Z,3.40
2019-06-08T20:14:04.027Z,2.63
2019-06-08T20:16:33.595Z,3.40
2019-06-08T20:19:03.137Z,2.93
2019-06-08T20:21:32.947Z,2.07
2019-06-08T20:24:07.461Z,2.20
2019-06-08T20:26:37.455Z,2.63
2019-06-08T20:29:13.132Z,2.17
2019-06-08T20:31:39.107Z,2.57
2019-06-08T20:34:08.782Z,2.70
2019-06-08T20:36:38.519Z,7.53
2019-06-08T20:39:08.896Z,5.13
2019-06-08T20:41:38.594Z,6.20
2019-06-08T20:44:08.602Z,5.97
2019-06-08T20:46:38.455Z,4.70
2019-06-08T20:49:08.513Z,4.60
2019-06-08T20:51:38.161Z,5.63
2019-06-08T20:54:08.156Z,6.37
2019-06-08T20:56:37.846Z,3.47
2019-06-08T20:59:08.281Z,3.90
2019-06-08T21:01:38.096Z,3.87
2019-06-08T21:04:09.882Z,4.80
2019-06-08T21:06:58.466Z,5.67
2019-06-08T21:09:30.087Z,3.93
2019-06-08T21:12:00.921Z,3.37
2019-06-08T21:14:31.162Z,3.13
2019-06-08T21:17:00.819Z,4.33
2019-06-08T21:19:30.732Z,7.77
2019-06-08T21:22:00.430Z,4.30
2019-06-08T21:24:30.053Z,3.03
2019-06-08T21:27:00.779Z,3.60
2019-06-08T21:29:47.090Z,3.67
2019-06-08T21:32:02.951Z,3.50
2019-06-08T21:34:33.108Z,2.77
2019-06-08T21:37:02.935Z,4.83
2019-06-08T21:39:35.785Z,23.60
2019-06-08T21:42:03.810Z,15.17
2019-06-08T21:44:33.617Z,7.80
2019-06-08T21:47:03.274Z,4.70
2019-06-08T21:49:33.048Z,4.37
2019-06-08T21:52:03.079Z,4.30
2019-06-08T21:54:32.744Z,3.60
2019-06-08T21:57:05.967Z,6.47
2019-06-08T21:59:34.557Z,6.10
2019-06-08T22:02:04.682Z,3.60
2019-06-08T22:04:34.208Z,3.83
2019-06-08T22:07:03.980Z,3.60
2019-06-08T22:09:33.788Z,2.93
2019-06-08T22:12:03.986Z,2.83
2019-06-08T22:14:34.120Z,3.70
2019-06-08T22:17:04.376Z,3.10
2019-06-08T22:19:34.084Z,3.63
2019-06-08T22:22:03.929Z,3.13
2019-06-08T22:24:34.411Z,3.03
2019-06-08T22:27:04.448Z,3.23
2019-06-08T22:29:34.460Z,2.77
2019-06-08T22:32:04.556Z,3.53
2019-06-08T22:34:37.242Z,3.00
2019-06-08T22:37:08.615Z,5.07
2019-06-08T22:39:38.079Z,4.20
2019-06-08T22:42:08.548Z,2.90
2019-06-08T22:44:38.202Z,3.13
2019-06-08T22:47:08.282Z,3.10
2019-06-08T22:49:38.521Z,3.30
2019-06-08T22:52:08.446Z,3.17
2019-06-08T22:54:38.476Z,3.10
2019-06-08T22:57:08.299Z,3.30
2019-06-08T23:03:19.211Z,3.43
2019-06-08T23:05:48.876Z,3.33
2019-06-08T23:08:18.532Z,3.13
2019-06-08T23:10:48.387Z,5.57
2019-06-08T23:13:18.121Z,7.10
2019-06-08T23:15:48.092Z,3.30
2019-06-08T23:18:18.142Z,4.03
2019-06-08T23:20:48.203Z,3.20
2019-06-08T23:23:18.019Z,2.90
2019-06-08T23:25:48.171Z,3.23
2019-06-08T23:28:18.263Z,3.33
2019-06-08T23:30:47.958Z,2.87
2019-06-08T23:33:18.992Z,2.80
2019-06-08T23:36:32.396Z,3.33
2019-06-08T23:38:20.190Z,3.00
2019-06-08T23:40:49.832Z,3.10
2019-06-08T23:43:19.589Z,3.70
2019-06-08T23:45:49.183Z,3.47
2019-06-08T23:48:18.840Z,4.17
2019-06-08T23:50:48.369Z,3.63
2019-06-08T23:53:18.344Z,3.40
2019-06-08T23:55:48.183Z,3.10
2019-06-08T23:58:17.889Z,3.43
